Aviation Digital Data Service (ADDS)

Output produced by METARs form (1035 UTC 17 June 2019)
found at http://www.aviationweather.gov/metar/data/
 
METAR text: LEMG 171030Z 14008KT 110V190 CAVOK 22/16 Q1018 NOSIG
Conditions at: LEMG (MALAGA (CIV/MIL), ES) observed 1030 UTC 17 June 2019
Temperature: 22.0°C (72°F)
Dewpoint: 16.0°C (61°F) [RH = 69%]
Pressure (altimeter): 30.06 inches Hg (1018.0 mb)
Winds: from the SE (140 degrees) at 9 MPH (8 knots; 4.1 m/s)
Visibility: 6 or more miles (10+ km)
Ceiling: ceiling and visibility are OK
Clouds: unknown
Weather: no significant weather observed at this time

METAR text: LEMG 171000Z 13008KT 100V160 CAVOK 22/16 Q1018 NOSIG
Conditions at: LEMG (MALAGA (CIV/MIL), ES) observed 1000 UTC 17 June 2019
Temperature: 22.0°C (72°F)
Dewpoint: 16.0°C (61°F) [RH = 69%]
Pressure (altimeter): 30.06 inches Hg (1018.0 mb)
Winds: from the SE (130 degrees) at 9 MPH (8 knots; 4.1 m/s)
Visibility: 6 or more miles (10+ km)
Ceiling: ceiling and visibility are OK
Clouds: unknown
Weather: no significant weather observed at this time

METAR text: LEMG 170930Z 13009KT CAVOK 21/15 Q1018 NOSIG
Conditions at: LEMG (MALAGA (CIV/MIL), ES) observed 0930 UTC 17 June 2019
Temperature: 21.0°C (70°F)
Dewpoint: 15.0°C (59°F) [RH = 69%]
Pressure (altimeter): 30.06 inches Hg (1018.0 mb)
Winds: from the SE (130 degrees) at 10 MPH (9 knots; 4.6 m/s)
Visibility: 6 or more miles (10+ km)
Ceiling: ceiling and visibility are OK
Clouds: unknown
Weather: no significant weather observed at this time

METAR text: LEMG 170900Z 13008KT 080V170 CAVOK 22/14 Q1018 NOSIG
Conditions at: LEMG (MALAGA (CIV/MIL), ES) observed 0900 UTC 17 June 2019
Temperature: 22.0°C (72°F)
Dewpoint: 14.0°C (57°F) [RH = 60%]
Pressure (altimeter): 30.06 inches Hg (1018.0 mb)
Winds: from the SE (130 degrees) at 9 MPH (8 knots; 4.1 m/s)
Visibility: 6 or more miles (10+ km)
Ceiling: ceiling and visibility are OK
Clouds: unknown
Weather: no significant weather observed at this time

METAR text: LEMG 170830Z 14007KT 100V180 CAVOK 21/15 Q1018 NOSIG
Conditions at: LEMG (MALAGA (CIV/MIL), ES) observed 0830 UTC 17 June 2019
Temperature: 21.0°C (70°F)
Dewpoint: 15.0°C (59°F) [RH = 69%]
Pressure (altimeter): 30.06 inches Hg (1018.0 mb)
Winds: from the SE (140 degrees) at 8 MPH (7 knots; 3.6 m/s)
Visibility: 6 or more miles (10+ km)
Ceiling: ceiling and visibility are OK
Clouds: unknown
Weather: no significant weather observed at this time

METAR text: LEMG 170800Z 14004KT 060V200 CAVOK 22/15 Q1018 NOSIG
Conditions at: LEMG (MALAGA (CIV/MIL), ES) observed 0800 UTC 17 June 2019
Temperature: 22.0°C (72°F)
Dewpoint: 15.0°C (59°F) [RH = 65%]
Pressure (altimeter): 30.06 inches Hg (1018.0 mb)
Winds: from the SE (140 degrees) at 5 MPH (4 knots; 2.1 m/s)
Visibility: 6 or more miles (10+ km)
Ceiling: ceiling and visibility are OK
Clouds: unknown
Weather: no significant weather observed at this time

METAR text: LEMG 170730Z VRB02KT CAVOK 21/10 Q1018 NOSIG
Conditions at: LEMG (MALAGA (CIV/MIL), ES) observed 0730 UTC 17 June 2019
Temperature: 21.0°C (70°F)
Dewpoint: 10.0°C (50°F) [RH = 49%]
Pressure (altimeter): 30.06 inches Hg (1018.0 mb)
Winds: variable direction winds at 2 MPH (2 knots; 1.0 m/s)
Visibility: 6 or more miles (10+ km)
Ceiling: ceiling and visibility are OK
Clouds: unknown
Weather: no significant weather observed at this time

METAR text: LEMG 170700Z 29003KT 260V320 CAVOK 19/09 Q1018 NOSIG
Conditions at: LEMG (MALAGA (CIV/MIL), ES) observed 0700 UTC 17 June 2019
Temperature: 19.0°C (66°F)
Dewpoint: 9.0°C (48°F) [RH = 52%]
Pressure (altimeter): 30.06 inches Hg (1018.0 mb)
Winds: from the WNW (290 degrees) at 3 MPH (3 knots; 1.5 m/s)
Visibility: 6 or more miles (10+ km)
Ceiling: ceiling and visibility are OK
Clouds: unknown
Weather: no significant weather observed at this time

METAR text: LEMG 170630Z VRB02KT CAVOK 17/09 Q1018 NOSIG
Conditions at: LEMG (MALAGA (CIV/MIL), ES) observed 0630 UTC 17 June 2019
Temperature: 17.0°C (63°F)
Dewpoint: 9.0°C (48°F) [RH = 59%]
Pressure (altimeter): 30.06 inches Hg (1018.0 mb)
Winds: variable direction winds at 2 MPH (2 knots; 1.0 m/s)
Visibility: 6 or more miles (10+ km)
Ceiling: ceiling and visibility are OK
Clouds: unknown
Weather: no significant weather observed at this time

METAR text: LEMG 170600Z 28004KT CAVOK 16/09 Q1018 NOSIG
Conditions at: LEMG (MALAGA (CIV/MIL), ES) observed 0600 UTC 17 June 2019
Temperature: 16.0°C (61°F)
Dewpoint: 9.0°C (48°F) [RH = 63%]
Pressure (altimeter): 30.06 inches Hg (1018.0 mb)
Winds: from the W (280 degrees) at 5 MPH (4 knots; 2.1 m/s)
Visibility: 6 or more miles (10+ km)
Ceiling: ceiling and visibility are OK
Clouds: unknown
Weather: no significant weather observed at this time

METAR text: LEMG 170530Z 28005KT CAVOK 15/09 Q1018 NOSIG
Conditions at: LEMG (MALAGA (CIV/MIL), ES) observed 0530 UTC 17 June 2019
Temperature: 15.0°C (59°F)
Dewpoint: 9.0°C (48°F) [RH = 67%]
Pressure (altimeter): 30.06 inches Hg (1018.0 mb)
Winds: from the W (280 degrees) at 6 MPH (5 knots; 2.6 m/s)
Visibility: 6 or more miles (10+ km)
Ceiling: ceiling and visibility are OK
Clouds: unknown
Weather: no significant weather observed at this time

METAR text: LEMG 170500Z 28005KT CAVOK 15/09 Q1018 NOSIG
Conditions at: LEMG (MALAGA (CIV/MIL), ES) observed 0500 UTC 17 June 2019
Temperature: 15.0°C (59°F)
Dewpoint: 9.0°C (48°F) [RH = 67%]
Pressure (altimeter): 30.06 inches Hg (1018.0 mb)
Winds: from the W (280 degrees) at 6 MPH (5 knots; 2.6 m/s)
Visibility: 6 or more miles (10+ km)
Ceiling: ceiling and visibility are OK
Clouds: unknown
Weather: no significant weather observed at this time

METAR text: LEMG 170430Z 27005KT 230V290 CAVOK 16/09 Q1018 NOSIG
Conditions at: LEMG (MALAGA (CIV/MIL), ES) observed 0430 UTC 17 June 2019
Temperature: 16.0°C (61°F)
Dewpoint: 9.0°C (48°F) [RH = 63%]
Pressure (altimeter): 30.06 inches Hg (1018.0 mb)
Winds: from the W (270 degrees) at 6 MPH (5 knots; 2.6 m/s)
Visibility: 6 or more miles (10+ km)
Ceiling: ceiling and visibility are OK
Clouds: unknown
Weather: no significant weather observed at this time

METAR text: LEMG 170400Z 28004KT CAVOK 15/09 Q1018 NOSIG
Conditions at: LEMG (MALAGA (CIV/MIL), ES) observed 0400 UTC 17 June 2019
Temperature: 15.0°C (59°F)
Dewpoint: 9.0°C (48°F) [RH = 67%]
Pressure (altimeter): 30.06 inches Hg (1018.0 mb)
Winds: from the W (280 degrees) at 5 MPH (4 knots; 2.1 m/s)
Visibility: 6 or more miles (10+ km)
Ceiling: ceiling and visibility are OK
Clouds: unknown
Weather: no significant weather observed at this time

METAR text: LEMG 170330Z 29006KT CAVOK 15/09 Q1018 NOSIG
Conditions at: LEMG (MALAGA (CIV/MIL), ES) observed 0330 UTC 17 June 2019
Temperature: 15.0°C (59°F)
Dewpoint: 9.0°C (48°F) [RH = 67%]
Pressure (altimeter): 30.06 inches Hg (1018.0 mb)
Winds: from the WNW (290 degrees) at 7 MPH (6 knots; 3.1 m/s)
Visibility: 6 or more miles (10+ km)
Ceiling: ceiling and visibility are OK
Clouds: unknown
Weather: no significant weather observed at this time

METAR text: LEMG 170300Z 28005KT CAVOK 16/10 Q1018 NOSIG
Conditions at: LEMG (MALAGA (CIV/MIL), ES) observed 0300 UTC 17 June 2019
Temperature: 16.0°C (61°F)
Dewpoint: 10.0°C (50°F) [RH = 68%]
Pressure (altimeter): 30.06 inches Hg (1018.0 mb)
Winds: from the W (280 degrees) at 6 MPH (5 knots; 2.6 m/s)
Visibility: 6 or more miles (10+ km)
Ceiling: ceiling and visibility are OK
Clouds: unknown
Weather: no significant weather observed at this time

METAR text: LEMG 170230Z 28005KT CAVOK 16/10 Q1018 NOSIG
Conditions at: LEMG (MALAGA (CIV/MIL), ES) observed 0230 UTC 17 June 2019
Temperature: 16.0°C (61°F)
Dewpoint: 10.0°C (50°F) [RH = 68%]
Pressure (altimeter): 30.06 inches Hg (1018.0 mb)
Winds: from the W (280 degrees) at 6 MPH (5 knots; 2.6 m/s)
Visibility: 6 or more miles (10+ km)
Ceiling: ceiling and visibility are OK
Clouds: unknown
Weather: no significant weather observed at this time

METAR text: LEMG 170200Z 27005KT CAVOK 17/10 Q1018 NOSIG
Conditions at: LEMG (MALAGA (CIV/MIL), ES) observed 0200 UTC 17 June 2019
Temperature: 17.0°C (63°F)
Dewpoint: 10.0°C (50°F) [RH = 63%]
Pressure (altimeter): 30.06 inches Hg (1018.0 mb)
Winds: from the W (270 degrees) at 6 MPH (5 knots; 2.6 m/s)
Visibility: 6 or more miles (10+ km)
Ceiling: ceiling and visibility are OK
Clouds: unknown
Weather: no significant weather observed at this time

METAR text: LEMG 170130Z 29005KT CAVOK 16/10 Q1018 NOSIG
Conditions at: LEMG (MALAGA (CIV/MIL), ES) observed 0130 UTC 17 June 2019
Temperature: 16.0°C (61°F)
Dewpoint: 10.0°C (50°F) [RH = 68%]
Pressure (altimeter): 30.06 inches Hg (1018.0 mb)
Winds: from the WNW (290 degrees) at 6 MPH (5 knots; 2.6 m/s)
Visibility: 6 or more miles (10+ km)
Ceiling: ceiling and visibility are OK
Clouds: unknown
Weather: no significant weather observed at this time

METAR text: LEMG 170100Z 28005KT CAVOK 17/10 Q1018 NOSIG
Conditions at: LEMG (MALAGA (CIV/MIL), ES) observed 0100 UTC 17 June 2019
Temperature: 17.0°C (63°F)
Dewpoint: 10.0°C (50°F) [RH = 63%]
Pressure (altimeter): 30.06 inches Hg (1018.0 mb)
Winds: from the W (280 degrees) at 6 MPH (5 knots; 2.6 m/s)
Visibility: 6 or more miles (10+ km)
Ceiling: ceiling and visibility are OK
Clouds: unknown
Weather: no significant weather observed at this time

METAR text: LEMG 170030Z 28004KT CAVOK 18/11 Q1019 NOSIG
Conditions at: LEMG (MALAGA (CIV/MIL), ES) observed 0030 UTC 17 June 2019
Temperature: 18.0°C (64°F)
Dewpoint: 11.0°C (52°F) [RH = 64%]
Pressure (altimeter): 30.09 inches Hg (1019.0 mb)
Winds: from the W (280 degrees) at 5 MPH (4 knots; 2.1 m/s)
Visibility: 6 or more miles (10+ km)
Ceiling: ceiling and visibility are OK
Clouds: unknown
Weather: no significant weather observed at this time

METAR text: LEMG 170000Z 29005KT CAVOK 17/10 Q1019 NOSIG
Conditions at: LEMG (MALAGA (CIV/MIL), ES) observed 0000 UTC 17 June 2019
Temperature: 17.0°C (63°F)
Dewpoint: 10.0°C (50°F) [RH = 63%]
Pressure (altimeter): 30.09 inches Hg (1019.0 mb)
Winds: from the WNW (290 degrees) at 6 MPH (5 knots; 2.6 m/s)
Visibility: 6 or more miles (10+ km)
Ceiling: ceiling and visibility are OK
Clouds: unknown
Weather: no significant weather observed at this time

METAR text: LEMG 162330Z 30003KT CAVOK 18/11 Q1019 NOSIG
Conditions at: LEMG (MALAGA (CIV/MIL), ES) observed 2330 UTC 16 June 2019
Temperature: 18.0°C (64°F)
Dewpoint: 11.0°C (52°F) [RH = 64%]
Pressure (altimeter): 30.09 inches Hg (1019.0 mb)
Winds: from the WNW (300 degrees) at 3 MPH (3 knots; 1.5 m/s)
Visibility: 6 or more miles (10+ km)
Ceiling: ceiling and visibility are OK
Clouds: unknown
Weather: no significant weather observed at this time

METAR text: LEMG 162300Z 28003KT CAVOK 18/12 Q1019 NOSIG
Conditions at: LEMG (MALAGA (CIV/MIL), ES) observed 2300 UTC 16 June 2019
Temperature: 18.0°C (64°F)
Dewpoint: 12.0°C (54°F) [RH = 68%]
Pressure (altimeter): 30.09 inches Hg (1019.0 mb)
Winds: from the W (280 degrees) at 3 MPH (3 knots; 1.5 m/s)
Visibility: 6 or more miles (10+ km)
Ceiling: ceiling and visibility are OK
Clouds: unknown
Weather: no significant weather observed at this time

METAR text: LEMG 162230Z VRB01KT CAVOK 19/12 Q1019 NOSIG
Conditions at: LEMG (MALAGA (CIV/MIL), ES) observed 2230 UTC 16 June 2019
Temperature: 19.0°C (66°F)
Dewpoint: 12.0°C (54°F) [RH = 64%]
Pressure (altimeter): 30.09 inches Hg (1019.0 mb)
Winds: variable direction winds at 1 MPH (1 knots; 0.5 m/s)
Visibility: 6 or more miles (10+ km)
Ceiling: ceiling and visibility are OK
Clouds: unknown
Weather: no significant weather observed at this time

METAR text: LEMG 162200Z 20003KT CAVOK 20/13 Q1019 NOSIG
Conditions at: LEMG (MALAGA (CIV/MIL), ES) observed 2200 UTC 16 June 2019
Temperature: 20.0°C (68°F)
Dewpoint: 13.0°C (55°F) [RH = 64%]
Pressure (altimeter): 30.09 inches Hg (1019.0 mb)
Winds: from the SSW (200 degrees) at 3 MPH (3 knots; 1.5 m/s)
Visibility: 6 or more miles (10+ km)
Ceiling: ceiling and visibility are OK
Clouds: unknown
Weather: no significant weather observed at this time

METAR text: LEMG 162130Z VRB02KT CAVOK 20/13 Q1019 NOSIG
Conditions at: LEMG (MALAGA (CIV/MIL), ES) observed 2130 UTC 16 June 2019
Temperature: 20.0°C (68°F)
Dewpoint: 13.0°C (55°F) [RH = 64%]
Pressure (altimeter): 30.09 inches Hg (1019.0 mb)
Winds: variable direction winds at 2 MPH (2 knots; 1.0 m/s)
Visibility: 6 or more miles (10+ km)
Ceiling: ceiling and visibility are OK
Clouds: unknown
Weather: no significant weather observed at this time

METAR text: LEMG 162100Z 07004KT CAVOK 21/13 Q1019 NOSIG
Conditions at: LEMG (MALAGA (CIV/MIL), ES) observed 2100 UTC 16 June 2019
Temperature: 21.0°C (70°F)
Dewpoint: 13.0°C (55°F) [RH = 60%]
Pressure (altimeter): 30.09 inches Hg (1019.0 mb)
Winds: from the ENE (70 degrees) at 5 MPH (4 knots; 2.1 m/s)
Visibility: 6 or more miles (10+ km)
Ceiling: ceiling and visibility are OK
Clouds: unknown
Weather: no significant weather observed at this time

METAR text: LEMG 162030Z 08004KT 040V120 CAVOK 21/14 Q1019 NOSIG
Conditions at: LEMG (MALAGA (CIV/MIL), ES) observed 2030 UTC 16 June 2019
Temperature: 21.0°C (70°F)
Dewpoint: 14.0°C (57°F) [RH = 64%]
Pressure (altimeter): 30.09 inches Hg (1019.0 mb)
Winds: from the E (80 degrees) at 5 MPH (4 knots; 2.1 m/s)
Visibility: 6 or more miles (10+ km)
Ceiling: ceiling and visibility are OK
Clouds: unknown
Weather: no significant weather observed at this time

METAR text: LEMG 162000Z 08005KT CAVOK 21/13 Q1019 NOSIG
Conditions at: LEMG (MALAGA (CIV/MIL), ES) observed 2000 UTC 16 June 2019
Temperature: 21.0°C (70°F)
Dewpoint: 13.0°C (55°F) [RH = 60%]
Pressure (altimeter): 30.09 inches Hg (1019.0 mb)
Winds: from the E (80 degrees) at 6 MPH (5 knots; 2.6 m/s)
Visibility: 6 or more miles (10+ km)
Ceiling: ceiling and visibility are OK
Clouds: unknown
Weather: no significant weather observed at this time

METAR text: LEMG 161930Z 09004KT 020V130 CAVOK 21/13 Q1018 NOSIG
Conditions at: LEMG (MALAGA (CIV/MIL), ES) observed 1930 UTC 16 June 2019
Temperature: 21.0°C (70°F)
Dewpoint: 13.0°C (55°F) [RH = 60%]
Pressure (altimeter): 30.06 inches Hg (1018.0 mb)
Winds: from the E (90 degrees) at 5 MPH (4 knots; 2.1 m/s)
Visibility: 6 or more miles (10+ km)
Ceiling: ceiling and visibility are OK
Clouds: unknown
Weather: no significant weather observed at this time

METAR text: LEMG 161900Z 13004KT CAVOK 22/14 Q1018 NOSIG
Conditions at: LEMG (MALAGA (CIV/MIL), ES) observed 1900 UTC 16 June 2019
Temperature: 22.0°C (72°F)
Dewpoint: 14.0°C (57°F) [RH = 60%]
Pressure (altimeter): 30.06 inches Hg (1018.0 mb)
Winds: from the SE (130 degrees) at 5 MPH (4 knots; 2.1 m/s)
Visibility: 6 or more miles (10+ km)
Ceiling: ceiling and visibility are OK
Clouds: unknown
Weather: no significant weather observed at this time

METAR text: LEMG 161830Z 13006KT CAVOK 22/14 Q1018 NOSIG
Conditions at: LEMG (MALAGA (CIV/MIL), ES) observed 1830 UTC 16 June 2019
Temperature: 22.0°C (72°F)
Dewpoint: 14.0°C (57°F) [RH = 60%]
Pressure (altimeter): 30.06 inches Hg (1018.0 mb)
Winds: from the SE (130 degrees) at 7 MPH (6 knots; 3.1 m/s)
Visibility: 6 or more miles (10+ km)
Ceiling: ceiling and visibility are OK
Clouds: unknown
Weather: no significant weather observed at this time

METAR text: LEMG 161800Z 13006KT 070V170 CAVOK 23/14 Q1018 NOSIG
Conditions at: LEMG (MALAGA (CIV/MIL), ES) observed 1800 UTC 16 June 2019
Temperature: 23.0°C (73°F)
Dewpoint: 14.0°C (57°F) [RH = 57%]
Pressure (altimeter): 30.06 inches Hg (1018.0 mb)
Winds: from the SE (130 degrees) at 7 MPH (6 knots; 3.1 m/s)
Visibility: 6 or more miles (10+ km)
Ceiling: ceiling and visibility are OK
Clouds: unknown
Weather: no significant weather observed at this time

METAR text: LEMG 161730Z 12008KT 090V160 CAVOK 23/13 Q1018 NOSIG
Conditions at: LEMG (MALAGA (CIV/MIL), ES) observed 1730 UTC 16 June 2019
Temperature: 23.0°C (73°F)
Dewpoint: 13.0°C (55°F) [RH = 53%]
Pressure (altimeter): 30.06 inches Hg (1018.0 mb)
Winds: from the ESE (120 degrees) at 9 MPH (8 knots; 4.1 m/s)
Visibility: 6 or more miles (10+ km)
Ceiling: ceiling and visibility are OK
Clouds: unknown
Weather: no significant weather observed at this time

METAR text: LEMG 161700Z 13007KT 090V160 CAVOK 24/13 Q1018 NOSIG
Conditions at: LEMG (MALAGA (CIV/MIL), ES) observed 1700 UTC 16 June 2019
Temperature: 24.0°C (75°F)
Dewpoint: 13.0°C (55°F) [RH = 50%]
Pressure (altimeter): 30.06 inches Hg (1018.0 mb)
Winds: from the SE (130 degrees) at 8 MPH (7 knots; 3.6 m/s)
Visibility: 6 or more miles (10+ km)
Ceiling: ceiling and visibility are OK
Clouds: unknown
Weather: no significant weather observed at this time

METAR text: LEMG 161630Z 14009KT 110V180 CAVOK 23/12 Q1018 NOSIG
Conditions at: LEMG (MALAGA (CIV/MIL), ES) observed 1630 UTC 16 June 2019
Temperature: 23.0°C (73°F)
Dewpoint: 12.0°C (54°F) [RH = 50%]
Pressure (altimeter): 30.06 inches Hg (1018.0 mb)
Winds: from the SE (140 degrees) at 10 MPH (9 knots; 4.6 m/s)
Visibility: 6 or more miles (10+ km)
Ceiling: ceiling and visibility are OK
Clouds: unknown
Weather: no significant weather observed at this time

METAR text: LEMG 161600Z 13008KT 100V170 CAVOK 24/12 Q1018 NOSIG
Conditions at: LEMG (MALAGA (CIV/MIL), ES) observed 1600 UTC 16 June 2019
Temperature: 24.0°C (75°F)
Dewpoint: 12.0°C (54°F) [RH = 47%]
Pressure (altimeter): 30.06 inches Hg (1018.0 mb)
Winds: from the SE (130 degrees) at 9 MPH (8 knots; 4.1 m/s)
Visibility: 6 or more miles (10+ km)
Ceiling: ceiling and visibility are OK
Clouds: unknown
Weather: no significant weather observed at this time

METAR text: LEMG 161530Z 14007KT 100V200 CAVOK 24/12 Q1018 NOSIG
Conditions at: LEMG (MALAGA (CIV/MIL), ES) observed 1530 UTC 16 June 2019
Temperature: 24.0°C (75°F)
Dewpoint: 12.0°C (54°F) [RH = 47%]
Pressure (altimeter): 30.06 inches Hg (1018.0 mb)
Winds: from the SE (140 degrees) at 8 MPH (7 knots; 3.6 m/s)
Visibility: 6 or more miles (10+ km)
Ceiling: ceiling and visibility are OK
Clouds: unknown
Weather: no significant weather observed at this time

METAR text: LEMG 161500Z 15009KT 120V190 CAVOK 23/13 Q1018 NOSIG
Conditions at: LEMG (MALAGA (CIV/MIL), ES) observed 1500 UTC 16 June 2019
Temperature: 23.0°C (73°F)
Dewpoint: 13.0°C (55°F) [RH = 53%]
Pressure (altimeter): 30.06 inches Hg (1018.0 mb)
Winds: from the SSE (150 degrees) at 10 MPH (9 knots; 4.6 m/s)
Visibility: 6 or more miles (10+ km)
Ceiling: ceiling and visibility are OK
Clouds: unknown
Weather: no significant weather observed at this time

METAR text: LEMG 161430Z 15009KT 110V200 CAVOK 23/12 Q1018 NOSIG
Conditions at: LEMG (MALAGA (CIV/MIL), ES) observed 1430 UTC 16 June 2019
Temperature: 23.0°C (73°F)
Dewpoint: 12.0°C (54°F) [RH = 50%]
Pressure (altimeter): 30.06 inches Hg (1018.0 mb)
Winds: from the SSE (150 degrees) at 10 MPH (9 knots; 4.6 m/s)
Visibility: 6 or more miles (10+ km)
Ceiling: ceiling and visibility are OK
Clouds: unknown
Weather: no significant weather observed at this time

METAR text: LEMG 161400Z 13009KT 100V170 CAVOK 24/13 Q1019 NOSIG
Conditions at: LEMG (MALAGA (CIV/MIL), ES) observed 1400 UTC 16 June 2019
Temperature: 24.0°C (75°F)
Dewpoint: 13.0°C (55°F) [RH = 50%]
Pressure (altimeter): 30.09 inches Hg (1019.0 mb)
Winds: from the SE (130 degrees) at 10 MPH (9 knots; 4.6 m/s)
Visibility: 6 or more miles (10+ km)
Ceiling: ceiling and visibility are OK
Clouds: unknown
Weather: no significant weather observed at this time

METAR text: LEMG 161330Z 13010KT 100V160 9999 FEW070 24/12 Q1019 NOSIG
Conditions at: LEMG (MALAGA (CIV/MIL), ES) observed 1330 UTC 16 June 2019
Temperature: 24.0°C (75°F)
Dewpoint: 12.0°C (54°F) [RH = 47%]
Pressure (altimeter): 30.09 inches Hg (1019.0 mb)
Winds: from the SE (130 degrees) at 12 MPH (10 knots; 5.1 m/s)
Visibility: 6 or more miles (10+ km)
Ceiling: at least 12,000 feet AGL
Clouds: few clouds at 7000 feet AGL
Weather: no significant weather observed at this time

METAR text: LEMG 161300Z 15008KT 120V190 9999 FEW060 24/11 Q1019 NOSIG
Conditions at: LEMG (MALAGA (CIV/MIL), ES) observed 1300 UTC 16 June 2019
Temperature: 24.0°C (75°F)
Dewpoint: 11.0°C (52°F) [RH = 44%]
Pressure (altimeter): 30.09 inches Hg (1019.0 mb)
Winds: from the SSE (150 degrees) at 9 MPH (8 knots; 4.1 m/s)
Visibility: 6 or more miles (10+ km)
Ceiling: at least 12,000 feet AGL
Clouds: few clouds at 6000 feet AGL
Weather: no significant weather observed at this time

METAR text: LEMG 161230Z 14008KT 110V190 9999 FEW060 24/10 Q1019 NOSIG
Conditions at: LEMG (MALAGA (CIV/MIL), ES) observed 1230 UTC 16 June 2019
Temperature: 24.0°C (75°F)
Dewpoint: 10.0°C (50°F) [RH = 41%]
Pressure (altimeter): 30.09 inches Hg (1019.0 mb)
Winds: from the SE (140 degrees) at 9 MPH (8 knots; 4.1 m/s)
Visibility: 6 or more miles (10+ km)
Ceiling: at least 12,000 feet AGL
Clouds: few clouds at 6000 feet AGL
Weather: no significant weather observed at this time

METAR text: LEMG 161200Z 12007KT 080V150 9999 FEW080 24/12 Q1019 NOSIG
Conditions at: LEMG (MALAGA (CIV/MIL), ES) observed 1200 UTC 16 June 2019
Temperature: 24.0°C (75°F)
Dewpoint: 12.0°C (54°F) [RH = 47%]
Pressure (altimeter): 30.09 inches Hg (1019.0 mb)
Winds: from the ESE (120 degrees) at 8 MPH (7 knots; 3.6 m/s)
Visibility: 6 or more miles (10+ km)
Ceiling: at least 12,000 feet AGL
Clouds: few clouds at 8000 feet AGL
Weather: no significant weather observed at this time

METAR text: LEMG 161130Z 12007KT 9999 FEW080 22/12 Q1019 NOSIG
Conditions at: LEMG (MALAGA (CIV/MIL), ES) observed 1130 UTC 16 June 2019
Temperature: 22.0°C (72°F)
Dewpoint: 12.0°C (54°F) [RH = 53%]
Pressure (altimeter): 30.09 inches Hg (1019.0 mb)
Winds: from the ESE (120 degrees) at 8 MPH (7 knots; 3.6 m/s)
Visibility: 6 or more miles (10+ km)
Ceiling: at least 12,000 feet AGL
Clouds: few clouds at 8000 feet AGL
Weather: no significant weather observed at this time

METAR text: LEMG 161100Z 11006KT 060V160 9999 FEW080 24/10 Q1019 NOSIG
Conditions at: LEMG (MALAGA (CIV/MIL), ES) observed 1100 UTC 16 June 2019
Temperature: 24.0°C (75°F)
Dewpoint: 10.0°C (50°F) [RH = 41%]
Pressure (altimeter): 30.09 inches Hg (1019.0 mb)
Winds: from the ESE (110 degrees) at 7 MPH (6 knots; 3.1 m/s)
Visibility: 6 or more miles (10+ km)
Ceiling: at least 12,000 feet AGL
Clouds: few clouds at 8000 feet AGL
Weather: no significant weather observed at this time

METAR text: LEMG 161030Z 11006KT 9999 FEW070 23/10 Q1019 NOSIG
Conditions at: LEMG (MALAGA (CIV/MIL), ES) observed 1030 UTC 16 June 2019
Temperature: 23.0°C (73°F)
Dewpoint: 10.0°C (50°F) [RH = 44%]
Pressure (altimeter): 30.09 inches Hg (1019.0 mb)
Winds: from the ESE (110 degrees) at 7 MPH (6 knots; 3.1 m/s)
Visibility: 6 or more miles (10+ km)
Ceiling: at least 12,000 feet AGL
Clouds: few clouds at 7000 feet AGL
Weather: no significant weather observed at this time

METAR text: LEMG 161000Z 11006KT 080V150 9999 FEW070 22/10 Q1019 NOSIG
Conditions at: LEMG (MALAGA (CIV/MIL), ES) observed 1000 UTC 16 June 2019
Temperature: 22.0°C (72°F)
Dewpoint: 10.0°C (50°F) [RH = 46%]
Pressure (altimeter): 30.09 inches Hg (1019.0 mb)
Winds: from the ESE (110 degrees) at 7 MPH (6 knots; 3.1 m/s)
Visibility: 6 or more miles (10+ km)
Ceiling: at least 12,000 feet AGL
Clouds: few clouds at 7000 feet AGL
Weather: no significant weather observed at this time

METAR text: LEMG 160930Z 11006KT 030V150 9999 FEW070 23/09 Q1018 NOSIG
Conditions at: LEMG (MALAGA (CIV/MIL), ES) observed 0930 UTC 16 June 2019
Temperature: 23.0°C (73°F)
Dewpoint: 9.0°C (48°F) [RH = 41%]
Pressure (altimeter): 30.06 inches Hg (1018.0 mb)
Winds: from the ESE (110 degrees) at 7 MPH (6 knots; 3.1 m/s)
Visibility: 6 or more miles (10+ km)
Ceiling: at least 12,000 feet AGL
Clouds: few clouds at 7000 feet AGL
Weather: no significant weather observed at this time

METAR text: LEMG 160900Z 10005KT 9999 FEW060 23/11 Q1018 NOSIG
Conditions at: LEMG (MALAGA (CIV/MIL), ES) observed 0900 UTC 16 June 2019
Temperature: 23.0°C (73°F)
Dewpoint: 11.0°C (52°F) [RH = 47%]
Pressure (altimeter): 30.06 inches Hg (1018.0 mb)
Winds: from the E (100 degrees) at 6 MPH (5 knots; 2.6 m/s)
Visibility: 6 or more miles (10+ km)
Ceiling: at least 12,000 feet AGL
Clouds: few clouds at 6000 feet AGL
Weather: no significant weather observed at this time

METAR text: LEMG 160830Z 23002KT 9999 FEW060 23/12 Q1018 NOSIG
Conditions at: LEMG (MALAGA (CIV/MIL), ES) observed 0830 UTC 16 June 2019
Temperature: 23.0°C (73°F)
Dewpoint: 12.0°C (54°F) [RH = 50%]
Pressure (altimeter): 30.06 inches Hg (1018.0 mb)
Winds: from the SW (230 degrees) at 2 MPH (2 knots; 1.0 m/s)
Visibility: 6 or more miles (10+ km)
Ceiling: at least 12,000 feet AGL
Clouds: few clouds at 6000 feet AGL
Weather: no significant weather observed at this time

METAR text: LEMG 160800Z 29006KT 260V320 9999 FEW060 21/14 Q1018 NOSIG
Conditions at: LEMG (MALAGA (CIV/MIL), ES) observed 0800 UTC 16 June 2019
Temperature: 21.0°C (70°F)
Dewpoint: 14.0°C (57°F) [RH = 64%]
Pressure (altimeter): 30.06 inches Hg (1018.0 mb)
Winds: from the WNW (290 degrees) at 7 MPH (6 knots; 3.1 m/s)
Visibility: 6 or more miles (10+ km)
Ceiling: at least 12,000 feet AGL
Clouds: few clouds at 6000 feet AGL
Weather: no significant weather observed at this time

METAR text: LEMG 160730Z 28006KT 250V320 9999 FEW060 19/14 Q1018 NOSIG
Conditions at: LEMG (MALAGA (CIV/MIL), ES) observed 0730 UTC 16 June 2019
Temperature: 19.0°C (66°F)
Dewpoint: 14.0°C (57°F) [RH = 73%]
Pressure (altimeter): 30.06 inches Hg (1018.0 mb)
Winds: from the W (280 degrees) at 7 MPH (6 knots; 3.1 m/s)
Visibility: 6 or more miles (10+ km)
Ceiling: at least 12,000 feet AGL
Clouds: few clouds at 6000 feet AGL
Weather: no significant weather observed at this time

METAR text: LEMG 160700Z 30005KT 280V340 9999 FEW015 18/14 Q1018 NOSIG
Conditions at: LEMG (MALAGA (CIV/MIL), ES) observed 0700 UTC 16 June 2019
Temperature: 18.0°C (64°F)
Dewpoint: 14.0°C (57°F) [RH = 77%]
Pressure (altimeter): 30.06 inches Hg (1018.0 mb)
Winds: from the WNW (300 degrees) at 6 MPH (5 knots; 2.6 m/s)
Visibility: 6 or more miles (10+ km)
Ceiling: at least 12,000 feet AGL
Clouds: few clouds at 1500 feet AGL
Weather: no significant weather observed at this time

METAR text: LEMG 160630Z 29008KT 9999 FEW010 17/14 Q1018 NOSIG
Conditions at: LEMG (MALAGA (CIV/MIL), ES) observed 0630 UTC 16 June 2019
Temperature: 17.0°C (63°F)
Dewpoint: 14.0°C (57°F) [RH = 82%]
Pressure (altimeter): 30.06 inches Hg (1018.0 mb)
Winds: from the WNW (290 degrees) at 9 MPH (8 knots; 4.1 m/s)
Visibility: 6 or more miles (10+ km)
Ceiling: at least 12,000 feet AGL
Clouds: few clouds at 1000 feet AGL
Weather: no significant weather observed at this time

METAR text: LEMG 160600Z 29008KT 9999 FEW008 18/15 Q1017 NOSIG
Conditions at: LEMG (MALAGA (CIV/MIL), ES) observed 0600 UTC 16 June 2019
Temperature: 18.0°C (64°F)
Dewpoint: 15.0°C (59°F) [RH = 83%]
Pressure (altimeter): 30.03 inches Hg (1017.0 mb)
Winds: from the WNW (290 degrees) at 9 MPH (8 knots; 4.1 m/s)
Visibility: 6 or more miles (10+ km)
Ceiling: at least 12,000 feet AGL
Clouds: few clouds at 800 feet AGL
Weather: no significant weather observed at this time

METAR text: LEMG 160530Z 28006KT 9999 FEW008 17/15 Q1017 NOSIG
Conditions at: LEMG (MALAGA (CIV/MIL), ES) observed 0530 UTC 16 June 2019
Temperature: 17.0°C (63°F)
Dewpoint: 15.0°C (59°F) [RH = 88%]
Pressure (altimeter): 30.03 inches Hg (1017.0 mb)
Winds: from the W (280 degrees) at 7 MPH (6 knots; 3.1 m/s)
Visibility: 6 or more miles (10+ km)
Ceiling: at least 12,000 feet AGL
Clouds: few clouds at 800 feet AGL
Weather: no significant weather observed at this time

METAR text: LEMG 160500Z 28005KT 250V310 9999 FEW005 16/14 Q1017 NOSIG
Conditions at: LEMG (MALAGA (CIV/MIL), ES) observed 0500 UTC 16 June 2019
Temperature: 16.0°C (61°F)
Dewpoint: 14.0°C (57°F) [RH = 88%]
Pressure (altimeter): 30.03 inches Hg (1017.0 mb)
Winds: from the W (280 degrees) at 6 MPH (5 knots; 2.6 m/s)
Visibility: 6 or more miles (10+ km)
Ceiling: at least 12,000 feet AGL
Clouds: few clouds at 500 feet AGL
Weather: no significant weather observed at this time

METAR text: LEMG 160430Z 00000KT 9999 FEW005 17/16 Q1017 NOSIG
Conditions at: LEMG (MALAGA (CIV/MIL), ES) observed 0430 UTC 16 June 2019
Temperature: 17.0°C (63°F)
Dewpoint: 16.0°C (61°F) [RH = 94%]
Pressure (altimeter): 30.03 inches Hg (1017.0 mb)
Winds: calm
Visibility: 6 or more miles (10+ km)
Ceiling: at least 12,000 feet AGL
Clouds: few clouds at 500 feet AGL
Weather: no significant weather observed at this time

METAR text: LEMG 160400Z 16003KT 9999 FEW005 17/16 Q1017 NOSIG
Conditions at: LEMG (MALAGA (CIV/MIL), ES) observed 0400 UTC 16 June 2019
Temperature: 17.0°C (63°F)
Dewpoint: 16.0°C (61°F) [RH = 94%]
Pressure (altimeter): 30.03 inches Hg (1017.0 mb)
Winds: from the SSE (160 degrees) at 3 MPH (3 knots; 1.5 m/s)
Visibility: 6 or more miles (10+ km)
Ceiling: at least 12,000 feet AGL
Clouds: few clouds at 500 feet AGL
Weather: no significant weather observed at this time

METAR text: LEMG 160330Z 00000KT 9999 FEW005 17/16 Q1017 NOSIG
Conditions at: LEMG (MALAGA (CIV/MIL), ES) observed 0330 UTC 16 June 2019
Temperature: 17.0°C (63°F)
Dewpoint: 16.0°C (61°F) [RH = 94%]
Pressure (altimeter): 30.03 inches Hg (1017.0 mb)
Winds: calm
Visibility: 6 or more miles (10+ km)
Ceiling: at least 12,000 feet AGL
Clouds: few clouds at 500 feet AGL
Weather: no significant weather observed at this time

METAR text: LEMG 160300Z 13003KT 9999 FEW005 17/16 Q1016 NOSIG
Conditions at: LEMG (MALAGA (CIV/MIL), ES) observed 0300 UTC 16 June 2019
Temperature: 17.0°C (63°F)
Dewpoint: 16.0°C (61°F) [RH = 94%]
Pressure (altimeter): 30.00 inches Hg (1016.0 mb)
Winds: from the SE (130 degrees) at 3 MPH (3 knots; 1.5 m/s)
Visibility: 6 or more miles (10+ km)
Ceiling: at least 12,000 feet AGL
Clouds: few clouds at 500 feet AGL
Weather: no significant weather observed at this time

METAR text: LEMG 160230Z 14003KT 9999 FEW005 17/15 Q1016 NOSIG
Conditions at: LEMG (MALAGA (CIV/MIL), ES) observed 0230 UTC 16 June 2019
Temperature: 17.0°C (63°F)
Dewpoint: 15.0°C (59°F) [RH = 88%]
Pressure (altimeter): 30.00 inches Hg (1016.0 mb)
Winds: from the SE (140 degrees) at 3 MPH (3 knots; 1.5 m/s)
Visibility: 6 or more miles (10+ km)
Ceiling: at least 12,000 feet AGL
Clouds: few clouds at 500 feet AGL
Weather: no significant weather observed at this time

METAR text: LEMG 160200Z 15004KT 110V170 CAVOK 17/16 Q1016 NOSIG
Conditions at: LEMG (MALAGA (CIV/MIL), ES) observed 0200 UTC 16 June 2019
Temperature: 17.0°C (63°F)
Dewpoint: 16.0°C (61°F) [RH = 94%]
Pressure (altimeter): 30.00 inches Hg (1016.0 mb)
Winds: from the SSE (150 degrees) at 5 MPH (4 knots; 2.1 m/s)
Visibility: 6 or more miles (10+ km)
Ceiling: ceiling and visibility are OK
Clouds: unknown
Weather: no significant weather observed at this time

METAR text: LEMG 160130Z 15002KT CAVOK 17/15 Q1016 NOSIG
Conditions at: LEMG (MALAGA (CIV/MIL), ES) observed 0130 UTC 16 June 2019
Temperature: 17.0°C (63°F)
Dewpoint: 15.0°C (59°F) [RH = 88%]
Pressure (altimeter): 30.00 inches Hg (1016.0 mb)
Winds: from the SSE (150 degrees) at 2 MPH (2 knots; 1.0 m/s)
Visibility: 6 or more miles (10+ km)
Ceiling: ceiling and visibility are OK
Clouds: unknown
Weather: no significant weather observed at this time

METAR text: LEMG 160100Z 00000KT CAVOK 17/15 Q1016 NOSIG
Conditions at: LEMG (MALAGA (CIV/MIL), ES) observed 0100 UTC 16 June 2019
Temperature: 17.0°C (63°F)
Dewpoint: 15.0°C (59°F) [RH = 88%]
Pressure (altimeter): 30.00 inches Hg (1016.0 mb)
Winds: calm
Visibility: 6 or more miles (10+ km)
Ceiling: ceiling and visibility are OK
Clouds: unknown
Weather: no significant weather observed at this time

METAR text: LEMG 160030Z 00000KT CAVOK 17/15 Q1016 NOSIG
Conditions at: LEMG (MALAGA (CIV/MIL), ES) observed 0030 UTC 16 June 2019
Temperature: 17.0°C (63°F)
Dewpoint: 15.0°C (59°F) [RH = 88%]
Pressure (altimeter): 30.00 inches Hg (1016.0 mb)
Winds: calm
Visibility: 6 or more miles (10+ km)
Ceiling: ceiling and visibility are OK
Clouds: unknown
Weather: no significant weather observed at this time

METAR text: LEMG 160000Z 00000KT CAVOK 17/15 Q1017 NOSIG
Conditions at: LEMG (MALAGA (CIV/MIL), ES) observed 0000 UTC 16 June 2019
Temperature: 17.0°C (63°F)
Dewpoint: 15.0°C (59°F) [RH = 88%]
Pressure (altimeter): 30.03 inches Hg (1017.0 mb)
Winds: calm
Visibility: 6 or more miles (10+ km)
Ceiling: ceiling and visibility are OK
Clouds: unknown
Weather: no significant weather observed at this time

METAR text: LEMG 152330Z 00000KT CAVOK 18/15 Q1017 NOSIG
Conditions at: LEMG (MALAGA (CIV/MIL), ES) observed 2330 UTC 15 June 2019
Temperature: 18.0°C (64°F)
Dewpoint: 15.0°C (59°F) [RH = 83%]
Pressure (altimeter): 30.03 inches Hg (1017.0 mb)
Winds: calm
Visibility: 6 or more miles (10+ km)
Ceiling: ceiling and visibility are OK
Clouds: unknown
Weather: no significant weather observed at this time

METAR text: LEMG 152300Z VRB02KT CAVOK 18/15 Q1017 NOSIG
Conditions at: LEMG (MALAGA (CIV/MIL), ES) observed 2300 UTC 15 June 2019
Temperature: 18.0°C (64°F)
Dewpoint: 15.0°C (59°F) [RH = 83%]
Pressure (altimeter): 30.03 inches Hg (1017.0 mb)
Winds: variable direction winds at 2 MPH (2 knots; 1.0 m/s)
Visibility: 6 or more miles (10+ km)
Ceiling: ceiling and visibility are OK
Clouds: unknown
Weather: no significant weather observed at this time

Forecast for: LEMG (MALAGA (CIV/MIL), ES)
Text: TAF LEMG 170500Z 1706/1806 31006KT CAVOK TX26/1714Z TN15/1706Z
Forecast period: 0600 to 0700 UTC 17 June 2019
Forecast type: FROM: standard forecast or significant change
Winds: from the NW (310 degrees) at 7 MPH (6 knots; 3.1 m/s)
Visibility: 6 or more miles 10+ km)
Ceiling: unknown
Clouds: missing
Weather: no significant weather forecast for this period
Text: BECMG 1707/1709 13008KT
Forecast period: 0700 to 2100 UTC 17 June 2019
Forecast type: BECOMING: Conditions expected to become as follows by 0900 UTC 17 June 2019
Winds: from the SE (130 degrees) at 9 MPH (8 knots; 4.1 m/s)
Visibility: 6 or more miles 10+ km)
Ceiling: unknown
Clouds: missing
Weather: no significant weather forecast for this period
Text: BECMG 1721/1723 31005KT
Forecast period: 2100 UTC 17 June 2019 to 0600 UTC 18 June 2019
Forecast type: BECOMING: Conditions expected to become as follows by 2300 UTC 17 June 2019
Winds: from the NW (310 degrees) at 6 MPH (5 knots; 2.6 m/s)
Visibility: 6 or more miles 10+ km)
Ceiling: unknown
Clouds: missing
Weather: no significant weather forecast for this period